sensor_id;sensor_type;location;lat;lon;timestamp;P1;durP1;ratioP1;P2;durP2;ratioP2
51692;SDS011;37777;53.066;21.638;2023-04-15T00:05:07;19.13;;;10.25;;
51692;SDS011;37777;53.066;21.638;2023-04-15T00:12:10;17.27;;;9.85;;
51692;SDS011;37777;53.066;21.638;2023-04-15T00:19:12;15.30;;;9.00;;
51692;SDS011;37777;53.066;21.638;2023-04-15T00:26:13;18.40;;;10.50;;
51692;SDS011;37777;53.066;21.638;2023-04-15T00:33:15;20.33;;;9.38;;
51692;SDS011;37777;53.066;21.638;2023-04-15T00:40:18;16.90;;;10.57;;
51692;SDS011;37777;53.066;21.638;2023-04-15T00:47:21;21.02;;;10.88;;
51692;SDS011;37777;53.066;21.638;2023-04-15T00:54:23;22.77;;;10.73;;
51692;SDS011;37777;53.066;21.638;2023-04-15T01:01:25;19.77;;;10.40;;
51692;SDS011;37777;53.066;21.638;2023-04-15T01:08:27;19.40;;;9.23;;
51692;SDS011;37777;53.066;21.638;2023-04-15T01:15:30;17.33;;;9.45;;
51692;SDS011;37777;53.066;21.638;2023-04-15T01:22:31;13.73;;;8.50;;
51692;SDS011;37777;53.066;21.638;2023-04-15T01:29:35;16.77;;;8.73;;
51692;SDS011;37777;53.066;21.638;2023-04-15T01:36:37;15.88;;;8.30;;
51692;SDS011;37777;53.066;21.638;2023-04-15T01:43:39;13.13;;;8.43;;
51692;SDS011;37777;53.066;21.638;2023-04-15T01:50:41;13.77;;;8.20;;
51692;SDS011;37777;53.066;21.638;2023-04-15T01:57:44;12.60;;;8.13;;
51692;SDS011;37777;53.066;21.638;2023-04-15T02:04:47;13.88;;;8.13;;
51692;SDS011;37777;53.066;21.638;2023-04-15T02:11:49;13.30;;;9.02;;
51692;SDS011;37777;53.066;21.638;2023-04-15T02:18:51;13.35;;;9.02;;
51692;SDS011;37777;53.066;21.638;2023-04-15T02:25:53;13.05;;;8.82;;
51692;SDS011;37777;53.066;21.638;2023-04-15T02:32:55;15.48;;;8.13;;
51692;SDS011;37777;53.066;21.638;2023-04-15T02:39:57;11.13;;;7.97;;
51692;SDS011;37777;53.066;21.638;2023-04-15T02:46:59;12.55;;;7.80;;
51692;SDS011;37777;53.066;21.638;2023-04-15T02:54:01;10.10;;;7.45;;
51692;SDS011;37777;53.066;21.638;2023-04-15T03:01:02;12.13;;;7.43;;
51692;SDS011;37777;53.066;21.638;2023-04-15T03:08:04;11.60;;;7.43;;
51692;SDS011;37777;53.066;21.638;2023-04-15T03:15:07;9.43;;;7.00;;
51692;SDS011;37777;53.066;21.638;2023-04-15T03:22:09;11.50;;;7.13;;
51692;SDS011;37777;53.066;21.638;2023-04-15T03:29:11;17.13;;;8.57;;
51692;SDS011;37777;53.066;21.638;2023-04-15T03:36:13;12.20;;;7.63;;
51692;SDS011;37777;53.066;21.638;2023-04-15T03:43:15;14.07;;;7.82;;
51692;SDS011;37777;53.066;21.638;2023-04-15T03:50:17;13.00;;;7.55;;
51692;SDS011;37777;53.066;21.638;2023-04-15T03:57:19;12.95;;;7.95;;
51692;SDS011;37777;53.066;21.638;2023-04-15T04:04:21;11.32;;;7.53;;
51692;SDS011;37777;53.066;21.638;2023-04-15T04:11:23;12.52;;;7.60;;
51692;SDS011;37777;53.066;21.638;2023-04-15T04:18:24;10.85;;;7.18;;
51692;SDS011;37777;53.066;21.638;2023-04-15T04:25:26;19.80;;;8.20;;
51692;SDS011;37777;53.066;21.638;2023-04-15T04:32:28;12.90;;;8.45;;
51692;SDS011;37777;53.066;21.638;2023-04-15T04:39:31;18.45;;;8.65;;
51692;SDS011;37777;53.066;21.638;2023-04-15T04:46:33;11.68;;;7.40;;
51692;SDS011;37777;53.066;21.638;2023-04-15T04:53:35;14.02;;;8.38;;
51692;SDS011;37777;53.066;21.638;2023-04-15T05:00:39;11.82;;;7.38;;
51692;SDS011;37777;53.066;21.638;2023-04-15T05:07:40;12.10;;;7.97;;
51692;SDS011;37777;53.066;21.638;2023-04-15T05:14:42;15.70;;;8.13;;
51692;SDS011;37777;53.066;21.638;2023-04-15T05:21:44;12.30;;;7.47;;
51692;SDS011;37777;53.066;21.638;2023-04-15T05:28:46;16.40;;;7.85;;
51692;SDS011;37777;53.066;21.638;2023-04-15T05:35:48;17.67;;;8.65;;
51692;SDS011;37777;53.066;21.638;2023-04-15T05:42:50;16.30;;;8.70;;
51692;SDS011;37777;53.066;21.638;2023-04-15T05:49:52;15.73;;;8.90;;
51692;SDS011;37777;53.066;21.638;2023-04-15T05:56:54;15.65;;;8.93;;
51692;SDS011;37777;53.066;21.638;2023-04-15T06:03:56;14.07;;;9.07;;
51692;SDS011;37777;53.066;21.638;2023-04-15T06:10:58;20.05;;;9.23;;
51692;SDS011;37777;53.066;21.638;2023-04-15T06:18:00;19.20;;;8.98;;
51692;SDS011;37777;53.066;21.638;2023-04-15T06:25:02;13.55;;;8.18;;
51692;SDS011;37777;53.066;21.638;2023-04-15T06:32:04;16.73;;;9.40;;
51692;SDS011;37777;53.066;21.638;2023-04-15T06:39:06;21.48;;;9.73;;
51692;SDS011;37777;53.066;21.638;2023-04-15T06:46:08;17.48;;;10.07;;
51692;SDS011;37777;53.066;21.638;2023-04-15T06:53:10;18.38;;;10.00;;
51692;SDS011;37777;53.066;21.638;2023-04-15T07:00:12;15.95;;;8.57;;
51692;SDS011;37777;53.066;21.638;2023-04-15T07:07:14;18.15;;;9.07;;
51692;SDS011;37777;53.066;21.638;2023-04-15T07:14:18;13.95;;;8.27;;
51692;SDS011;37777;53.066;21.638;2023-04-15T07:21:20;21.10;;;10.27;;
51692;SDS011;37777;53.066;21.638;2023-04-15T07:28:22;71.25;;;27.38;;
51692;SDS011;37777;53.066;21.638;2023-04-15T07:35:24;20.02;;;11.10;;
51692;SDS011;37777;53.066;21.638;2023-04-15T07:42:27;17.27;;;8.98;;
51692;SDS011;37777;53.066;21.638;2023-04-15T07:49:29;24.77;;;9.95;;
51692;SDS011;37777;53.066;21.638;2023-04-15T07:56:31;23.50;;;12.15;;
51692;SDS011;37777;53.066;21.638;2023-04-15T08:03:33;16.20;;;9.35;;
51692;SDS011;37777;53.066;21.638;2023-04-15T08:10:36;18.77;;;9.88;;
51692;SDS011;37777;53.066;21.638;2023-04-15T08:17:38;18.48;;;9.07;;
51692;SDS011;37777;53.066;21.638;2023-04-15T08:24:40;16.23;;;9.02;;
51692;SDS011;37777;53.066;21.638;2023-04-15T08:31:41;21.30;;;8.35;;
51692;SDS011;37777;53.066;21.638;2023-04-15T08:38:44;12.07;;;7.43;;
51692;SDS011;37777;53.066;21.638;2023-04-15T08:45:46;17.50;;;8.00;;
51692;SDS011;37777;53.066;21.638;2023-04-15T08:52:52;12.65;;;7.65;;
51692;SDS011;37777;53.066;21.638;2023-04-15T08:59:57;13.85;;;8.77;;
51692;SDS011;37777;53.066;21.638;2023-04-15T09:06:59;10.73;;;6.95;;
51692;SDS011;37777;53.066;21.638;2023-04-15T09:14:01;13.43;;;7.63;;
51692;SDS011;37777;53.066;21.638;2023-04-15T09:21:06;14.73;;;8.50;;
51692;SDS011;37777;53.066;21.638;2023-04-15T09:28:09;10.93;;;7.55;;
51692;SDS011;37777;53.066;21.638;2023-04-15T09:35:11;16.13;;;8.70;;
51692;SDS011;37777;53.066;21.638;2023-04-15T09:42:14;14.30;;;7.80;;
51692;SDS011;37777;53.066;21.638;2023-04-15T09:49:16;12.50;;;8.52;;
51692;SDS011;37777;53.066;21.638;2023-04-15T09:56:18;9.18;;;6.75;;
51692;SDS011;37777;53.066;21.638;2023-04-15T10:03:27;12.65;;;7.38;;
51692;SDS011;37777;53.066;21.638;2023-04-15T10:10:35;9.90;;;6.53;;
51692;SDS011;37777;53.066;21.638;2023-04-15T10:17:38;12.00;;;7.28;;
51692;SDS011;37777;53.066;21.638;2023-04-15T10:24:42;9.68;;;6.80;;
51692;SDS011;37777;53.066;21.638;2023-04-15T10:31:46;8.88;;;5.80;;
51692;SDS011;37777;53.066;21.638;2023-04-15T10:38:48;7.97;;;5.70;;
51692;SDS011;37777;53.066;21.638;2023-04-15T10:45:50;7.50;;;4.78;;
51692;SDS011;37777;53.066;21.638;2023-04-15T10:52:54;10.23;;;5.20;;
51692;SDS011;37777;53.066;21.638;2023-04-15T11:07:05;7.70;;;4.45;;
51692;SDS011;37777;53.066;21.638;2023-04-15T11:14:07;8.77;;;5.27;;
51692;SDS011;37777;53.066;21.638;2023-04-15T11:21:15;5.75;;;4.90;;
51692;SDS011;37777;53.066;21.638;2023-04-15T11:28:19;7.55;;;4.93;;
51692;SDS011;37777;53.066;21.638;2023-04-15T11:35:21;7.30;;;5.03;;
51692;SDS011;37777;53.066;21.638;2023-04-15T11:42:24;6.28;;;4.80;;
51692;SDS011;37777;53.066;21.638;2023-04-15T11:49:31;5.53;;;4.68;;
51692;SDS011;37777;53.066;21.638;2023-04-15T11:56:35;8.63;;;4.55;;
51692;SDS011;37777;53.066;21.638;2023-04-15T12:10:39;4.32;;;3.92;;
51692;SDS011;37777;53.066;21.638;2023-04-15T12:17:40;6.05;;;4.95;;
51692;SDS011;37777;53.066;21.638;2023-04-15T12:24:55;5.60;;;4.72;;
51692;SDS011;37777;53.066;21.638;2023-04-15T12:32:02;13.30;;;5.20;;
51692;SDS011;37777;53.066;21.638;2023-04-15T12:39:04;8.48;;;4.70;;
51692;SDS011;37777;53.066;21.638;2023-04-15T12:46:06;4.38;;;3.80;;
51692;SDS011;37777;53.066;21.638;2023-04-15T12:53:09;5.13;;;3.85;;
51692;SDS011;37777;53.066;21.638;2023-04-15T13:00:11;7.53;;;5.18;;
51692;SDS011;37777;53.066;21.638;2023-04-15T13:07:13;7.68;;;4.60;;
51692;SDS011;37777;53.066;21.638;2023-04-15T13:14:16;6.18;;;4.10;;
51692;SDS011;37777;53.066;21.638;2023-04-15T13:21:18;8.25;;;4.93;;
51692;SDS011;37777;53.066;21.638;2023-04-15T13:28:20;6.93;;;4.50;;
51692;SDS011;37777;53.066;21.638;2023-04-15T13:35:22;6.63;;;4.55;;
51692;SDS011;37777;53.066;21.638;2023-04-15T13:42:24;4.55;;;4.15;;
51692;SDS011;37777;53.066;21.638;2023-04-15T13:49:26;6.15;;;4.50;;
51692;SDS011;37777;53.066;21.638;2023-04-15T13:56:28;5.35;;;3.90;;
51692;SDS011;37777;53.066;21.638;2023-04-15T14:03:35;6.75;;;4.43;;
51692;SDS011;37777;53.066;21.638;2023-04-15T14:10:37;7.45;;;4.18;;
51692;SDS011;37777;53.066;21.638;2023-04-15T14:17:39;4.32;;;3.90;;
51692;SDS011;37777;53.066;21.638;2023-04-15T14:24:43;6.00;;;4.22;;
51692;SDS011;37777;53.066;21.638;2023-04-15T14:31:46;5.22;;;3.55;;
51692;SDS011;37777;53.066;21.638;2023-04-15T14:39:13;5.10;;;3.72;;
51692;SDS011;37777;53.066;21.638;2023-04-15T14:46:26;4.03;;;3.63;;
51692;SDS011;37777;53.066;21.638;2023-04-15T14:53:27;5.82;;;4.03;;
51692;SDS011;37777;53.066;21.638;2023-04-15T15:00:30;4.68;;;3.75;;
51692;SDS011;37777;53.066;21.638;2023-04-15T15:07:32;6.32;;;3.60;;
51692;SDS011;37777;53.066;21.638;2023-04-15T15:14:34;4.00;;;3.60;;
51692;SDS011;37777;53.066;21.638;2023-04-15T15:21:36;6.88;;;4.40;;
51692;SDS011;37777;53.066;21.638;2023-04-15T15:28:38;4.60;;;4.07;;
51692;SDS011;37777;53.066;21.638;2023-04-15T15:35:40;6.47;;;4.43;;
51692;SDS011;37777;53.066;21.638;2023-04-15T15:42:42;5.03;;;4.50;;
51692;SDS011;37777;53.066;21.638;2023-04-15T15:49:44;5.18;;;3.97;;
51692;SDS011;37777;53.066;21.638;2023-04-15T15:56:46;4.75;;;3.83;;
51692;SDS011;37777;53.066;21.638;2023-04-15T16:03:48;5.43;;;4.30;;
51692;SDS011;37777;53.066;21.638;2023-04-15T16:10:50;4.35;;;3.33;;
51692;SDS011;37777;53.066;21.638;2023-04-15T16:17:52;8.32;;;4.25;;
51692;SDS011;37777;53.066;21.638;2023-04-15T16:24:54;5.75;;;4.68;;
51692;SDS011;37777;53.066;21.638;2023-04-15T16:31:56;6.28;;;5.00;;
51692;SDS011;37777;53.066;21.638;2023-04-15T16:38:58;6.57;;;4.57;;
51692;SDS011;37777;53.066;21.638;2023-04-15T16:46:00;5.93;;;4.50;;
51692;SDS011;37777;53.066;21.638;2023-04-15T16:53:02;7.30;;;4.80;;
51692;SDS011;37777;53.066;21.638;2023-04-15T17:00:04;7.72;;;5.63;;
51692;SDS011;37777;53.066;21.638;2023-04-15T17:07:06;7.28;;;5.07;;
51692;SDS011;37777;53.066;21.638;2023-04-15T17:14:11;7.53;;;5.63;;
51692;SDS011;37777;53.066;21.638;2023-04-15T17:21:14;8.32;;;5.47;;
51692;SDS011;37777;53.066;21.638;2023-04-15T17:28:17;8.77;;;4.85;;
51692;SDS011;37777;53.066;21.638;2023-04-15T17:35:19;6.75;;;4.85;;
51692;SDS011;37777;53.066;21.638;2023-04-15T17:42:21;8.07;;;5.22;;
51692;SDS011;37777;53.066;21.638;2023-04-15T17:49:31;7.57;;;5.22;;
51692;SDS011;37777;53.066;21.638;2023-04-15T17:56:34;10.68;;;5.78;;
51692;SDS011;37777;53.066;21.638;2023-04-15T18:03:36;9.13;;;4.65;;
51692;SDS011;37777;53.066;21.638;2023-04-15T18:10:39;5.38;;;4.75;;
51692;SDS011;37777;53.066;21.638;2023-04-15T18:17:42;6.13;;;4.55;;
51692;SDS011;37777;53.066;21.638;2023-04-15T18:24:44;4.90;;;4.20;;
51692;SDS011;37777;53.066;21.638;2023-04-15T18:31:47;5.00;;;4.50;;
51692;SDS011;37777;53.066;21.638;2023-04-15T18:38:49;5.55;;;4.75;;
51692;SDS011;37777;53.066;21.638;2023-04-15T18:45:52;6.75;;;4.57;;
51692;SDS011;37777;53.066;21.638;2023-04-15T18:52:56;8.93;;;6.10;;
51692;SDS011;37777;53.066;21.638;2023-04-15T18:59:59;10.88;;;5.63;;
51692;SDS011;37777;53.066;21.638;2023-04-15T19:07:01;9.60;;;6.82;;
51692;SDS011;37777;53.066;21.638;2023-04-15T19:14:06;15.07;;;7.28;;
51692;SDS011;37777;53.066;21.638;2023-04-15T19:21:08;10.27;;;5.88;;
51692;SDS011;37777;53.066;21.638;2023-04-15T19:28:14;6.43;;;5.13;;
51692;SDS011;37777;53.066;21.638;2023-04-15T19:35:18;8.40;;;5.85;;
51692;SDS011;37777;53.066;21.638;2023-04-15T19:42:22;6.60;;;4.88;;
51692;SDS011;37777;53.066;21.638;2023-04-15T19:49:24;9.93;;;5.95;;
51692;SDS011;37777;53.066;21.638;2023-04-15T19:56:27;10.82;;;6.47;;
51692;SDS011;37777;53.066;21.638;2023-04-15T20:03:32;7.38;;;5.47;;
51692;SDS011;37777;53.066;21.638;2023-04-15T20:10:36;24.33;;;11.15;;
51692;SDS011;37777;53.066;21.638;2023-04-15T20:17:38;8.50;;;5.90;;
51692;SDS011;37777;53.066;21.638;2023-04-15T20:24:41;6.55;;;5.20;;
51692;SDS011;37777;53.066;21.638;2023-04-15T20:31:43;10.68;;;5.90;;
51692;SDS011;37777;53.066;21.638;2023-04-15T20:38:45;11.20;;;6.20;;
51692;SDS011;37777;53.066;21.638;2023-04-15T20:45:48;11.95;;;5.45;;
51692;SDS011;37777;53.066;21.638;2023-04-15T20:52:51;9.48;;;6.10;;
51692;SDS011;37777;53.066;21.638;2023-04-15T20:59:53;15.48;;;8.18;;
51692;SDS011;37777;53.066;21.638;2023-04-15T21:06:56;10.38;;;5.82;;
51692;SDS011;37777;53.066;21.638;2023-04-15T21:13:58;9.30;;;5.40;;
51692;SDS011;37777;53.066;21.638;2023-04-15T21:21:01;8.15;;;5.25;;
51692;SDS011;37777;53.066;21.638;2023-04-15T21:28:03;9.40;;;5.15;;
51692;SDS011;37777;53.066;21.638;2023-04-15T21:35:05;7.88;;;5.30;;
51692;SDS011;37777;53.066;21.638;2023-04-15T21:42:07;7.72;;;4.63;;
51692;SDS011;37777;53.066;21.638;2023-04-15T21:49:09;5.43;;;4.28;;
51692;SDS011;37777;53.066;21.638;2023-04-15T21:56:11;3.83;;;3.25;;
51692;SDS011;37777;53.066;21.638;2023-04-15T22:03:13;5.07;;;3.42;;
51692;SDS011;37777;53.066;21.638;2023-04-15T22:10:15;3.72;;;3.20;;
51692;SDS011;37777;53.066;21.638;2023-04-15T22:17:18;3.13;;;2.83;;
51692;SDS011;37777;53.066;21.638;2023-04-15T22:24:20;4.20;;;3.45;;
51692;SDS011;37777;53.066;21.638;2023-04-15T22:31:40;4.88;;;3.47;;
51692;SDS011;37777;53.066;21.638;2023-04-15T22:38:42;4.28;;;3.80;;
51692;SDS011;37777;53.066;21.638;2023-04-15T22:45:50;5.38;;;3.88;;
51692;SDS011;37777;53.066;21.638;2023-04-15T22:52:53;4.70;;;3.45;;
51692;SDS011;37777;53.066;21.638;2023-04-15T22:59:55;3.40;;;3.10;;
51692;SDS011;37777;53.066;21.638;2023-04-15T23:06:57;3.97;;;3.60;;
51692;SDS011;37777;53.066;21.638;2023-04-15T23:13:59;3.90;;;3.50;;
51692;SDS011;37777;53.066;21.638;2023-04-15T23:21:01;3.35;;;3.05;;
51692;SDS011;37777;53.066;21.638;2023-04-15T23:28:03;3.92;;;3.63;;
51692;SDS011;37777;53.066;21.638;2023-04-15T23:35:05;4.03;;;3.65;;
51692;SDS011;37777;53.066;21.638;2023-04-15T23:42:07;3.55;;;3.25;;
51692;SDS011;37777;53.066;21.638;2023-04-15T23:49:09;3.58;;;3.15;;
51692;SDS011;37777;53.066;21.638;2023-04-15T23:56:11;3.38;;;3.13;;
